Página principal
METAR-TAF:

METAR-TAF

Aeroportos :

Niamey, Níger

Aeroporto Internacional Diori Hamani

latitude: 13-29N, longitude: 002-10E, altura: 223 m

Observação actual do tempo

O boletim foi feito há 42 minutos, às 23:00 UTC
Vento calmo
Temperatura 25°C
Humidade 41%
Pressão 1013 hPa
Visibilidade: 8000 m

METAR: DRRN 192300Z 00000KT 8000 NSC 25/11 Q1013 NOSIG

Hora: 00:42 (23:42 UTC)

Previsão

O boletim foi feito há 42 minutos, às 23:00 UTC
Previsão válida de 20 às 00 UTC a 21 às 06 UTC
Vento 8 kt de es-nordeste
Visibilidade: 8000 m
Temporariamente
de 20 às 06 UTC a 20 às 10 UTC
Visibilidade: 4000 m
poeira extensa
Temporariamente
de 20 às 17 UTC a 20 às 20 UTC
Visibilidade: 4000 m
poeira extensa

TAF: DRRN 192300Z 2000/2106 06008KT 8000 NSC TEMPO 2006/2010 4000 DU TEMPO 2017/2020 4000 DU

Observações e previsões do tempo de mais de 4000 aeroportos (mensagens METAR e TAF).

As estações disponíveis são os pontos amarelos e vermelhos sobre o mapa.

Mova o rato sobre o mapa para ver o nome da estação.

Depois clique no ponto para visualizar as observações e previsões meteorológicas.

Para alterar o mapa : clique nos botões verdes com uma cruz preta para aumentar o zoom; no botão verde com uma pitada de zoom; ou nas setas verdes para mapas adjacentes.


METAR-TAF: